Evergreen, AL (36401)

11:31 PM CST on February 10, 2016 (GMT -0600)
Middleton | | Change Station
CLOSE
Current Station
Airport
Location: Evergreen,
Elevation: 256 ft
Nearby Weather Stations

Elev 256 ft 31.42 °N, 87.04 °W | Updated 38 minutes ago

Clear
Clear
38 °F
Feels Like 36 °F
N
4
Wind Variable Wind from South

Today
High -- | Low -- °F
--% Chance of Precip.
Yesterday
High -- | Low -- °F
Precip. -- in
Pressure 30.21 in
Visibility 10.0 miles
Clouds Clear
Windchill 36 °F
Dew Point 27 °F
Humidity 65%
Rainfall 0.00 in
Snow Depth Not available.
6:34 AM 5:30 PM
Waxing Crescent, 9% visible
METAR KGZH 110453Z AUTO 17003KT 10SM CLR 03/M03 A3020 RMK AO2 SLP229 T00331028
Pressure 30.21 in
Visibility 10.0 miles
Clouds Clear
Windchill 36 °F
Dew Point 27 °F
Humidity 65%
Rainfall 0.00 in
Snow Depth Not available.
6:34 AM 5:30 PM
Waxing Crescent, 9% visible
METAR KGZH 110453Z AUTO 17003KT 10SM CLR 03/M03 A3020 RMK AO2 SLP229 T00331028

10-Day Weather Forecast

Almanac

Astronomy

Feb. 10, 2016 Rise Set
Actual Time
Civil Twilight
Nautical Twilight
Astronomical Twilight
Moon
Length of Visible Light
Length of Day
Tomorrow will be .
, % of the Moon is Illuminated

Today's Extremes

State Highs State Lows

Community

WunderPhotos

Upload Photos

1,892,023 photos uploaded!

WunderBlog® & News

Nearby

Air Quality

  Air Quality AQ Index Pollutant
Not available.

Snow Depth

Station Depth Elevation

Earthquake Activity

City Distance Mag. Time & Date
Minimum magnitude displayed is 2.5.

Coastal Water Temperatures

Place Temperature

Stations

Nearby Weather Stations

Station Location Temp. Windchill Dew Point Humidity Wind Precip. Elev Updated Type
                   

Watches & Warnings

There are currently no watches in effect.